Terminal Aerodrome Forecast
Issued by NWS

Home | Current Version | Previous Version | Text Only | Print | Product List | Glossary On
Versions: 1 2 3 4 5 6 7 8 9 10 11 12 13
000
FTUS44 KEPZ 230524
TAFTCS
TAF
KTCS 230524Z 2306/2406 28008KT P6SM SCT040 BKN090 OVC120
     FM231200 01004KT P6SM FEW070 SCT110 BKN150
     FM231800 12008KT P6SM VCTS SCT060CB BKN100
     FM240400 04005KT P6SM VCSH SCT050 BKN100 OVC150=

USA.gov is the U.S. government's official web portal to all federal, state and local government web resources and services.